Time;durP1;ratioP1;P1;durP2;ratioP2;P2;SDS_P1;SDS_P2;PMS_P1;PMS_P2;Temp;Humidity;BMP_temperature;BMP_pressure;BME280_temperature;BME280_humidity;BME280_pressure;Samples;Min_cycle;Max_cycle;Signal;HPM_P1;HPM_P2
2023/02/23 00:02:11;;;;;;;;;;;;;;;17.62;66.14;100718.94;2254526;79;51470;-76
2023/02/23 00:05:13;;;;;;;;;;;;;;;17.61;66.16;100724.45;2254321;79;51464;-76
2023/02/23 00:08:14;;;;;;;;;;;;;;;17.59;66.12;100724.61;2229206;79;51512;-76
2023/02/23 00:11:16;;;;;;;;;;;;;;;17.59;66.11;100724.61;2254164;79;50741;-76
2023/02/23 00:14:18;;;;;;;;;;;;;;;17.57;65.96;100718.63;2229279;79;50617;-77
2023/02/23 00:17:23;;;;;;;;;;;;;;;17.57;66.08;100722.64;2254331;79;50449;-78
2023/02/23 00:20:29;;;;;;;;;;;;;;;17.58;66.00;100718.12;2229430;79;22322;-77
2023/02/23 00:23:30;;;;;;;;;;;;;;;17.57;65.99;100717.77;2237914;79;50445;-77
2023/02/23 00:26:33;;;;;;;;;;;;;;;17.56;65.95;100706.24;2189374;79;50037;-78
2023/02/23 00:29:38;;;;;;;;;;;;;;;17.56;65.97;100707.58;2168155;81;50688;-77
2023/02/23 00:32:38;;;;;;;;;;;;;;;17.60;65.93;100708.08;2173613;81;22403;-78
2023/02/23 00:35:41;;;;;;;;;;;;;;;17.63;66.11;100701.03;2167874;81;51538;-77
2023/02/23 00:38:44;;;;;;;;;;;;;;;17.66;66.13;100702.53;2167452;81;51560;-77
2023/02/23 00:41:46;;;;;;;;;;;;;;;17.64;65.76;100698.16;2175407;81;51477;-77
2023/02/23 00:44:48;;;;;;;;;;;;;;;17.67;65.75;100701.50;2151637;81;51592;-76
2023/02/23 00:47:50;;;;;;;;;;;;;;;17.66;65.93;100702.53;2166632;81;51540;-78
2023/02/23 00:50:59;;;;;;;;;;;;;;;17.62;65.71;100702.88;2168035;81;51544;-76
2023/02/23 00:54:01;;;;;;;;;;;;;;;17.61;65.73;100698.52;2205304;79;50678;-77
2023/02/23 00:57:02;;;;;;;;;;;;;;;17.60;65.86;100702.22;2213179;78;52328;-77
2023/02/23 01:00:24;;;;;;;;;;;;;;;17.60;65.74;100700.88;2233494;78;51455;-76
2023/02/23 01:03:10;;;;;;;;;;;;;;;17.60;65.72;100696.04;2259151;78;22145;-77
2023/02/23 01:06:13;;;;;;;;;;;;;;;17.60;65.78;100698.20;2233099;78;50434;-78
2023/02/23 01:09:26;;;;;;;;;;;;;;;17.60;65.63;100688.02;2232992;78;51010;-78
2023/02/23 01:12:19;;;;;;;;;;;;;;;17.59;65.69;100689.83;2263292;78;22716;-78
2023/02/23 01:15:20;;;;;;;;;;;;;;;17.59;65.54;100687.67;2265023;78;51463;-76
2023/02/23 01:18:23;;;;;;;;;;;;;;;17.57;65.59;100691.88;2230871;78;51493;-75
2023/02/23 01:21:26;;;;;;;;;;;;;;;17.57;65.52;100700.38;2216278;80;50707;-75
2023/02/23 01:24:28;;;;;;;;;;;;;;;17.56;65.44;100690.70;2232675;79;50411;-75
2023/02/23 01:27:29;;;;;;;;;;;;;;;17.56;65.39;100690.70;2230908;79;51536;-76
2023/02/23 01:30:31;;;;;;;;;;;;;;;17.56;65.38;100686.69;2253622;78;51471;-77
2023/02/23 01:33:33;;;;;;;;;;;;;;;17.55;65.39;100689.88;2231380;78;49603;-76
2023/02/23 01:36:35;;;;;;;;;;;;;;;17.57;65.46;100686.52;2253864;79;50424;-76
2023/02/23 01:39:36;;;;;;;;;;;;;;;17.59;65.41;100683.14;2253650;79;51464;-76
2023/02/23 01:42:38;;;;;;;;;;;;;;;17.60;66.15;100676.80;2254062;79;50731;-76
2023/02/23 01:45:42;;;;;;;;;;;;;;;17.60;66.56;100672.78;2200575;79;52326;-77
2023/02/23 01:48:43;;;;;;;;;;;;;;;17.62;66.55;100674.79;2252562;78;51534;-77
2023/02/23 01:51:49;;;;;;;;;;;;;;;17.60;66.43;100664.77;2254161;79;51513;-76
2023/02/23 01:54:51;;;;;;;;;;;;;;;17.61;66.01;100669.60;2223882;78;51477;-76
2023/02/23 01:57:53;;;;;;;;;;;;;;;17.63;65.52;100676.45;2230013;78;52339;-76
2023/02/23 02:00:55;;;;;;;;;;;;;;;17.66;65.52;100669.08;2266185;78;50770;-76
2023/02/23 02:03:58;;;;;;;;;;;;;;;17.66;65.37;100663.73;2242865;78;50789;-76
2023/02/23 02:07:02;;;;;;;;;;;;;;;17.63;65.19;100659.56;2215788;80;50763;-76
2023/02/23 02:13:17;;;;;;;;;;;;;;;17.62;65.42;100656.54;2217226;80;22170;-76
2023/02/23 02:16:20;;;;;;;;;;;;;;;17.62;65.36;100646.70;2217464;80;50388;-77
2023/02/23 02:19:23;;;;;;;;;;;;;;;17.63;65.33;100637.64;2215932;79;50157;-76
2023/02/23 02:22:26;;;;;;;;;;;;;;;17.61;65.20;100641.00;2192534;80;49649;-78
2023/02/23 02:25:35;;;;;;;;;;;;;;;17.62;65.09;100635.99;2235482;79;50408;-77
2023/02/23 02:28:47;;;;;;;;;;;;;;;17.59;65.11;100627.47;2255644;78;50759;-76
2023/02/23 02:31:51;;;;;;;;;;;;;;;17.58;65.12;100633.33;2254682;79;51615;-77
2023/02/23 02:35:06;;;;;;;;;;;;;;;17.57;65.12;100630.34;2228103;79;50148;-77
2023/02/23 02:38:15;;;;;;;;;;;;;;;17.56;65.01;100628.66;2253719;79;50497;-77
2023/02/23 02:41:18;;;;;;;;;;;;;;;17.54;64.89;100627.98;2253531;78;51643;-77
2023/02/23 02:44:30;;;;;;;;;;;;;;;17.56;65.11;100625.98;2253595;79;50777;-78
2023/02/23 02:47:33;;;;;;;;;;;;;;;17.56;65.19;100627.31;2228353;79;49564;-77
2023/02/23 02:50:39;;;;;;;;;;;;;;;17.59;65.69;100620.27;2253359;79;50470;-77
2023/02/23 02:53:45;;;;;;;;;;;;;;;17.58;66.03;100625.81;2242451;79;50456;-76
2023/02/23 02:56:46;;;;;;;;;;;;;;;17.54;66.04;100617.29;2255042;79;51499;-77
2023/02/23 04:20:12;;;;;;;;;;;;;;;17.58;64.46;100582.49;2215974;80;50470;-76
2023/02/23 04:23:13;;;;;;;;;;;;;;;17.56;64.50;100583.17;2204511;80;50391;-76
2023/02/23 04:26:15;;;;;;;;;;;;;;;17.56;64.54;100583.17;2203087;79;50423;-76
2023/02/23 04:29:16;;;;;;;;;;;;;;;17.56;64.61;100583.69;2219355;80;50372;-76
2023/02/23 04:32:19;;;;;;;;;;;;;;;17.55;64.94;100580.18;2232381;78;50727;-76
2023/02/23 04:35:21;;;;;;;;;;;;;;;17.56;65.64;100582.34;2264872;78;51519;-75
2023/02/23 04:38:22;;;;;;;;;;;;;;;17.56;65.68;100576.48;2264810;78;51521;-75
2023/02/23 04:41:24;;;;;;;;;;;;;;;17.52;65.58;100581.02;2232723;78;51511;-75
2023/02/23 04:44:25;;;;;;;;;;;;;;;17.52;65.19;100573.85;2209166;78;49534;-76
2023/02/23 04:47:27;;;;;;;;;;;;;;;17.57;64.85;100574.16;2232950;78;51479;-75
2023/02/23 04:50:29;;;;;;;;;;;;;;;17.56;64.67;100572.47;2233108;78;50037;-76
2023/02/23 04:53:30;;;;;;;;;;;;;;;17.56;64.74;100572.47;2248892;78;51499;-75
2023/02/23 04:56:32;;;;;;;;;;;;;;;17.55;64.84;100568.14;2221602;78;52265;-74
2023/02/23 04:59:34;;;;;;;;;;;;;;;17.57;65.85;100562.59;2233237;78;50432;-74
2023/02/23 05:02:35;;;;;;;;;;;;;;;17.57;65.86;100564.79;2233016;78;50363;-73
2023/02/23 05:05:37;;;;;;;;;;;;;;;17.57;65.84;100562.59;2264873;78;50385;-74
2023/02/23 05:08:38;;;;;;;;;;;;;;;17.58;65.88;100562.94;2210490;78;50977;-74
2023/02/23 05:11:40;;;;;;;;;;;;;;;17.58;66.01;100558.93;2264963;78;51463;-74
2023/02/23 05:14:42;;;;;;;;;;;;;;;17.59;65.92;100555.23;2264970;78;50397;-74
2023/02/23 05:17:43;;;;;;;;;;;;;;;17.57;65.99;100561.25;2264983;78;50389;-73
2023/02/23 05:20:45;;;;;;;;;;;;;;;17.58;66.40;100564.28;2208544;78;51089;-73
2023/02/23 05:23:47;;;;;;;;;;;;;;;17.59;66.05;100561.41;2220737;78;50763;-73
2023/02/23 05:26:48;;;;;;;;;;;;;;;17.58;65.76;100558.93;2229556;78;50329;-73
2023/02/23 05:29:50;;;;;;;;;;;;;;;17.56;65.48;100553.74;2264968;78;51488;-73
2023/02/23 05:32:51;;;;;;;;;;;;;;;17.54;65.40;100554.42;2208959;78;49573;-73
2023/02/23 05:35:53;;;;;;;;;;;;;;;17.54;65.36;100551.75;2233378;78;50418;-73
2023/02/23 05:38:55;;;;;;;;;;;;;;;17.57;65.05;100559.44;2232880;78;50425;-73
2023/02/23 05:41:56;;;;;;;;;;;;;;;17.58;65.27;100560.27;2264985;78;50783;-73
2023/02/23 05:44:58;;;;;;;;;;;;;;;17.58;65.30;100565.11;2209317;78;51508;-73
2023/02/23 05:47:59;;;;;;;;;;;;;;;17.58;65.08;100563.77;2227210;78;51500;-72
2023/02/23 05:51:02;;;;;;;;;;;;;;;17.57;65.02;100567.94;2254491;78;51457;-74
2023/02/23 05:54:03;;;;;;;;;;;;;;;17.57;65.26;100573.30;2246826;78;50803;-75
2023/02/23 05:57:05;;;;;;;;;;;;;;;17.55;65.38;100580.18;2220448;78;51518;-74
2023/02/23 06:00:07;;;;;;;;;;;;;;;17.52;65.49;100576.53;2224115;77;50400;-74
2023/02/23 06:03:09;;;;;;;;;;;;;;;17.52;65.62;100583.22;2250995;79;50736;-74
2023/02/23 06:06:10;;;;;;;;;;;;;;;17.51;65.65;100586.88;2227994;79;51525;-73
2023/02/23 06:09:12;;;;;;;;;;;;;;;17.53;65.59;100586.20;2189544;80;50110;-74
2023/02/23 06:12:14;;;;;;;;;;;;;;;17.57;65.64;100586.67;2190882;80;51556;-75
2023/02/23 06:15:15;;;;;;;;;;;;;;;17.56;65.48;100592.53;2244802;79;51599;-73
2023/02/23 06:18:17;;;;;;;;;;;;;;;17.59;65.56;100588.16;2230897;79;50696;-74
2023/02/23 06:21:19;;;;;;;;;;;;;;;17.59;65.57;100592.69;2253275;79;50496;-73
2023/02/23 06:24:22;;;;;;;;;;;;;;;17.58;65.56;100591.03;2200401;79;52904;-73
2023/02/23 06:27:24;;;;;;;;;;;;;;;17.57;65.59;100593.36;2230905;78;50474;-73
2023/02/23 06:30:26;;;;;;;;;;;;;;;17.59;65.46;100593.52;2230868;79;51522;-74
2023/02/23 06:33:27;;;;;;;;;;;;;;;17.60;65.50;100591.69;2253818;79;51525;-73
2023/02/23 06:36:29;;;;;;;;;;;;;;;17.56;65.86;100593.88;2187545;79;51095;-75
2023/02/23 06:39:30;;;;;;;;;;;;;;;17.56;66.07;100594.38;2230587;78;50103;-74
2023/02/23 06:42:34;;;;;;;;;;;;;;;17.58;66.84;100593.20;2230469;78;50749;-73
2023/02/23 06:45:35;;;;;;;;;;;;;;;17.57;67.84;100601.39;2206243;79;22348;-74
2023/02/23 06:48:37;;;;;;;;;;;;;;;17.60;67.08;100601.88;2200018;79;52205;-73
2023/02/23 06:51:38;;;;;;;;;;;;;;;17.64;67.52;100607.70;2227277;79;50062;-74
2023/02/23 06:54:40;;;;;;;;;;;;;;;17.68;68.00;100602.84;2239030;79;50393;-74
2023/02/23 06:57:42;;;;;;;;;;;;;;;17.70;67.83;100604.81;2215809;80;51534;-74
2023/02/23 07:00:44;;;;;;;;;;;;;;;17.71;67.39;100601.97;2191295;78;51133;-74
2023/02/23 07:03:45;;;;;;;;;;;;;;;17.68;67.49;100602.84;2191570;80;50714;-76
2023/02/23 07:06:47;;;;;;;;;;;;;;;17.69;67.04;100602.65;2215272;80;51487;-74
2023/02/23 07:09:49;;;;;;;;;;;;;;;17.71;67.04;100603.31;2214925;80;50703;-74
2023/02/23 07:12:50;;;;;;;;;;;;;;;17.68;66.75;100604.19;2167194;80;51002;-73
2023/02/23 07:15:53;;;;;;;;;;;;;;;17.66;66.52;100604.86;2210971;79;51490;-74
2023/02/23 07:18:55;;;;;;;;;;;;;;;17.63;66.48;100600.19;2253015;78;50737;-74
2023/02/23 07:21:57;;;;;;;;;;;;;;;17.65;66.39;100606.71;2253554;79;51563;-74
2023/02/23 07:24:58;;;;;;;;;;;;;;;17.69;66.21;100603.16;2228472;79;52382;-74
2023/02/23 07:28:00;;;;;;;;;;;;;;;17.76;65.89;100604.12;2253808;79;51519;-73
2023/02/23 07:31:01;;;;;;;;;;;;;;;17.87;65.41;100602.89;2228349;79;51929;-73
2023/02/23 07:34:03;;;;;;;;;;;;;;;17.93;65.14;100605.70;2228500;79;50429;-74
2023/02/23 07:37:05;;;;;;;;;;;;;;;17.94;64.95;100602.00;2228254;79;51163;-74
2023/02/23 07:40:07;;;;;;;;;;;;;;;17.98;64.79;100606.47;2253099;78;51505;-74
2023/02/23 07:43:08;;;;;;;;;;;;;;;17.95;64.76;100606.33;2217339;78;52366;-74
2023/02/23 07:46:10;;;;;;;;;;;;;;;17.87;64.93;100601.05;2220157;78;51602;-74
2023/02/23 07:49:12;;;;;;;;;;;;;;;17.83;65.08;100595.74;2233300;78;50986;-74
2023/02/23 07:52:15;;;;;;;;;;;;;;;17.78;65.23;100592.73;2264899;78;50433;-75
2023/02/23 07:55:17;;;;;;;;;;;;;;;17.72;65.37;100597.45;2264585;78;50164;-74
2023/02/23 07:58:19;;;;;;;;;;;;;;;17.75;65.36;100597.08;2264935;78;51399;-75
2023/02/23 08:01:20;;;;;;;;;;;;;;;17.80;65.19;100597.41;2208770;78;51592;-74
2023/02/23 08:04:22;;;;;;;;;;;;;;;17.90;65.04;100596.66;2262952;78;50152;-73
2023/02/23 08:07:24;;;;;;;;;;;;;;;17.96;64.96;100590.61;2230921;79;50093;-74
2023/02/23 08:10:26;;;;;;;;;;;;;;;18.06;64.54;100591.70;2253095;79;51490;-74
2023/02/23 08:13:28;;;;;;;;;;;;;;;18.13;64.53;100591.80;2190796;79;50173;-74
2023/02/23 08:16:30;;;;;;;;;;;;;;;18.17;64.43;100595.27;2218712;78;50789;-74
2023/02/23 08:19:32;;;;;;;;;;;;;;;18.22;64.28;100598.75;2256824;79;50736;-74
2023/02/23 08:22:34;;;;;;;;;;;;;;;18.27;64.11;100603.05;2257075;79;50442;-74
2023/02/23 08:25:36;;;;;;;;;;;;;;;18.25;64.15;100591.17;2234126;79;51194;-74
2023/02/23 08:28:40;;;;;;;;;;;;;;;18.22;64.16;100597.41;2256671;79;50377;-75
2023/02/23 08:31:40;;;;;;;;;;;;;;;18.18;64.18;100594.76;2218284;78;22361;-75
2023/02/23 08:34:43;;;;;;;;;;;;;;;18.14;64.25;100590.28;2215785;78;50723;-75
2023/02/23 08:37:44;;;;;;;;;;;;;;;18.15;64.24;100595.12;2166771;80;51154;-75
2023/02/23 08:40:46;;;;;;;;;;;;;;;18.14;64.27;100592.14;2216276;80;50789;-76
2023/02/23 08:43:47;;;;;;;;;;;;;;;18.10;64.36;100592.16;2225028;79;51468;-75
2023/02/23 08:46:49;;;;;;;;;;;;;;;18.14;64.29;100590.28;2255486;79;50764;-75
2023/02/23 08:49:53;;;;;;;;;;;;;;;18.23;64.09;100589.17;2210111;79;49481;-75
2023/02/23 08:52:54;;;;;;;;;;;;;;;18.31;63.99;100592.28;2257040;79;50756;-74
2023/02/23 08:55:57;;;;;;;;;;;;;;;18.34;63.94;100595.10;2257253;79;51501;-74
2023/02/23 08:58:58;;;;;;;;;;;;;;;18.42;63.73;100596.36;2256764;79;50466;-73
2023/02/23 09:02:00;;;;;;;;;;;;;;;18.46;63.56;100601.17;2257549;79;50751;-74
2023/02/23 09:05:01;;;;;;;;;;;;;;;18.53;63.35;100600.45;2235081;79;50772;-77
2023/02/23 09:08:03;;;;;;;;;;;;;;;18.48;63.43;100601.00;2254570;79;50905;-74
2023/02/23 09:11:05;;;;;;;;;;;;;;;18.47;63.46;100596.16;2254593;79;50856;-75
2023/02/23 09:14:07;;;;;;;;;;;;;;;18.43;63.49;100598.86;2198157;78;51145;-75
2023/02/23 09:17:09;;;;;;;;;;;;;;;18.38;63.56;100591.88;2236307;79;51562;-78
2023/02/23 09:20:12;;;;;;;;;;;;;;;18.33;63.66;100600.97;2255298;78;50725;-74
2023/02/23 09:23:13;;;;;;;;;;;;;;;18.30;63.70;100600.00;2253724;78;50732;-75
2023/02/23 09:26:17;;;;;;;;;;;;;;;18.28;63.76;100608.72;2231180;79;51669;-74
2023/02/23 09:29:18;;;;;;;;;;;;;;;18.29;63.74;100602.38;2255929;79;51479;-75
2023/02/23 09:32:20;;;;;;;;;;;;;;;18.31;63.76;100604.34;2224597;79;50783;-75
2023/02/23 09:35:22;;;;;;;;;;;;;;;18.39;63.58;100602.91;2216838;80;50405;-73
2023/02/23 09:38:24;;;;;;;;;;;;;;;18.50;63.25;100598.97;2202857;80;52306;-74
2023/02/23 09:41:28;;;;;;;;;;;;;;;18.58;63.08;100602.91;2216654;80;51564;-74
2023/02/23 09:44:43;;;;;;;;;;;;;;;18.63;62.94;100601.84;2233368;79;50386;-74
2023/02/23 09:47:55;;;;;;;;;;;;;;;18.65;62.83;100604.32;2253718;79;50739;-76
2023/02/23 09:50:57;;;;;;;;;;;;;;;18.63;62.84;100606.37;2228650;79;51957;-74
2023/02/23 09:53:59;;;;;;;;;;;;;;;18.62;62.84;100599.33;2254944;79;51370;-74
2023/02/23 09:57:02;;;;;;;;;;;;;;;18.62;62.81;100596.14;2226457;78;49610;-74
2023/02/23 10:00:10;;;;;;;;;;;;;;;18.58;62.87;100596.72;2224462;79;52070;-74
2023/02/23 10:03:13;;;;;;;;;;;;;;;18.55;62.88;100597.06;2220909;78;23153;-76
2023/02/23 10:06:15;;;;;;;;;;;;;;;18.50;62.92;100592.28;2227431;78;51510;-74
2023/02/23 10:09:33;;;;;;;;;;;;;;;18.47;63.03;100594.81;2254510;79;51004;-74
2023/02/23 10:12:36;;;;;;;;;;;;;;;18.46;63.08;100597.16;2215719;80;51915;-74
2023/02/23 10:15:39;;;;;;;;;;;;;;;18.50;63.03;100597.13;2191276;80;52338;-75
2023/02/23 10:18:45;;;;;;;;;;;;;;;18.57;62.85;100590.50;2222596;80;51883;-74
2023/02/23 10:21:48;;;;;;;;;;;;;;;18.61;62.75;100586.97;2222716;80;50137;-74
2023/02/23 10:24:54;;;;;;;;;;;;;;;18.68;62.56;100591.40;2222471;80;49709;-74
2023/02/23 10:27:56;;;;;;;;;;;;;;;18.75;62.37;100585.28;2198114;80;50241;-74
2023/02/23 10:30:57;;;;;;;;;;;;;;;18.79;62.25;100588.79;2216764;79;50742;-74
2023/02/23 10:34:00;;;;;;;;;;;;;;;18.83;62.10;100586.08;2206362;80;51464;-74
2023/02/23 10:37:03;;;;;;;;;;;;;;;18.78;62.18;100589.81;2179978;81;52056;-73
2023/02/23 10:40:05;;;;;;;;;;;;;;;18.76;62.18;100581.12;2155798;81;51170;-74
2023/02/23 10:43:06;;;;;;;;;;;;;;;18.70;62.27;100575.97;2180304;79;50433;-75
2023/02/23 10:46:09;;;;;;;;;;;;;;;18.68;62.30;100583.36;2204277;80;50392;-74
2023/02/23 10:49:13;;;;;;;;;;;;;;;18.64;62.36;100586.59;2178752;81;50148;-74
2023/02/23 10:52:15;;;;;;;;;;;;;;;18.59;62.42;100579.61;2157136;81;51249;-74
2023/02/23 10:55:24;;;;;;;;;;;;;;;18.54;62.53;100581.50;2180724;81;51614;-75
2023/02/23 10:58:26;;;;;;;;;;;;;;;18.56;62.55;100582.66;2180793;81;50723;-74
2023/02/23 11:01:43;;;;;;;;;;;;;;;18.62;62.44;100580.06;2157293;81;52476;-73
2023/02/23 11:04:40;;;;;;;;;;;;;;;18.72;62.31;100569.06;2157215;81;22252;-73
2023/02/23 11:07:44;;;;;;;;;;;;;;;18.78;62.20;100566.17;2180751;81;50423;-72
2023/02/23 11:10:58;;;;;;;;;;;;;;;18.87;62.12;100571.26;2190381;79;51517;-73
2023/02/23 11:13:59;;;;;;;;;;;;;;;18.87;62.02;100560.53;2233519;79;51975;-73
2023/02/23 11:17:01;;;;;;;;;;;;;;;18.85;62.05;100561.22;2201776;79;52420;-73
2023/02/23 11:20:04;;;;;;;;;;;;;;;18.84;62.17;100563.59;2253345;79;51488;-73
2023/02/23 11:23:09;;;;;;;;;;;;;;;18.80;62.33;100560.95;2253473;78;50393;-74
2023/02/23 11:26:21;;;;;;;;;;;;;;;18.75;62.48;100563.84;2253819;79;50426;-73
2023/02/23 11:29:23;;;;;;;;;;;;;;;18.71;62.58;100566.91;2253774;77;22167;-73
2023/02/23 11:32:31;;;;;;;;;;;;;;;18.68;62.82;100563.77;2253814;79;51516;-73
2023/02/23 11:35:33;;;;;;;;;;;;;;;18.61;63.04;100554.80;2253903;79;50348;-74
2023/02/23 11:38:35;;;;;;;;;;;;;;;18.65;63.11;100561.44;2253779;79;50211;-73
2023/02/23 11:41:36;;;;;;;;;;;;;;;18.69;63.05;100553.36;2228918;79;51567;-73
2023/02/23 11:44:38;;;;;;;;;;;;;;;18.75;62.99;100555.80;2249150;79;50543;-73
2023/02/23 11:47:40;;;;;;;;;;;;;;;18.82;62.83;100554.91;2254866;79;50389;-74
2023/02/23 11:50:43;;;;;;;;;;;;;;;18.87;62.74;100547.12;2240827;79;50755;-73
2023/02/23 11:53:45;;;;;;;;;;;;;;;18.92;62.53;100535.33;2193954;80;51965;-73
2023/02/23 11:56:49;;;;;;;;;;;;;;;18.92;62.51;100531.31;2216381;80;50771;-73
2023/02/23 11:59:50;;;;;;;;;;;;;;;18.91;62.63;100526.16;2216125;80;50734;-74
2023/02/23 12:02:54;;;;;;;;;;;;;;;18.89;62.69;100518.29;2216023;78;51572;-73
2023/02/23 12:05:59;;;;;;;;;;;;;;;18.84;62.82;100523.90;2191261;80;51703;-74
2023/02/23 12:09:18;;;;;;;;;;;;;;;18.79;63.01;100513.73;2215778;80;50317;-73
2023/02/23 12:12:20;;;;;;;;;;;;;;;18.74;63.17;100514.77;2215777;80;51536;-73
2023/02/23 12:15:39;;;;;;;;;;;;;;;18.72;63.22;100511.44;2245065;79;50726;-74
2023/02/23 12:19:00;;;;;;;;;;;;;;;18.69;63.48;100510.48;2231869;79;51728;-73
2023/02/23 12:22:06;;;;;;;;;;;;;;;18.72;63.47;100514.13;2255099;79;50719;-75
2023/02/23 12:25:11;;;;;;;;;;;;;;;18.81;63.27;100510.88;2254547;79;51530;-73
2023/02/23 12:28:14;;;;;;;;;;;;;;;18.89;63.13;100508.08;2255191;79;50789;-73
2023/02/23 12:31:30;;;;;;;;;;;;;;;18.96;62.96;100504.12;2229878;78;51568;-73
2023/02/23 12:34:33;;;;;;;;;;;;;;;18.95;62.91;100503.81;2235819;78;50393;-73
2023/02/23 12:37:39;;;;;;;;;;;;;;;18.97;62.85;100503.94;2254392;79;50320;-73
2023/02/23 12:40:43;;;;;;;;;;;;;;;18.96;62.96;100501.44;2254503;79;51281;-72
2023/02/23 12:43:50;;;;;;;;;;;;;;;18.88;63.14;100499.70;2225737;79;51731;-72
2023/02/23 12:46:51;;;;;;;;;;;;;;;18.85;63.24;100499.56;2255881;79;51892;-73
2023/02/23 12:50:03;;;;;;;;;;;;;;;18.79;63.40;100498.16;2249020;79;50715;-73
2023/02/23 12:53:02;;;;;;;;;;;;;;;18.75;63.53;100501.70;2254002;78;22612;-73
2023/02/23 12:56:05;;;;;;;;;;;;;;;18.70;63.66;100496.05;2230993;79;51700;-73
2023/02/23 12:59:24;;;;;;;;;;;;;;;18.69;63.86;100498.42;2253897;78;51493;-73
2023/02/23 13:02:27;;;;;;;;;;;;;;;18.72;63.85;100498.04;2254452;78;50723;-74
2023/02/23 13:05:33;;;;;;;;;;;;;;;18.80;63.69;100492.59;2254233;77;51507;-73
2023/02/23 13:08:42;;;;;;;;;;;;;;;18.88;63.49;100489.83;2200743;79;51099;-73
2023/02/23 13:11:46;;;;;;;;;;;;;;;18.92;63.37;100493.77;2253566;77;50690;-74
2023/02/23 13:14:58;;;;;;;;;;;;;;;18.98;63.18;100480.12;2226648;78;53153;-73
2023/02/23 13:18:05;;;;;;;;;;;;;;;18.98;63.15;100484.14;2223397;79;52195;-73
2023/02/23 13:21:23;;;;;;;;;;;;;;;18.96;63.21;100478.16;2227657;78;51113;-75
2023/02/23 13:24:29;;;;;;;;;;;;;;;18.93;63.28;100483.88;2248480;79;50485;-73
2023/02/23 13:27:34;;;;;;;;;;;;;;;18.90;63.33;100474.36;2254679;78;51630;-75
2023/02/23 13:30:41;;;;;;;;;;;;;;;18.83;63.52;100477.98;2253831;79;50358;-73
2023/02/23 13:33:39;;;;;;;;;;;;;;;18.80;63.60;100481.88;2253888;77;22312;-73
2023/02/23 13:36:41;;;;;;;;;;;;;;;18.73;63.77;100468.89;2228809;79;51350;-73
2023/02/23 13:39:44;;;;;;;;;;;;;;;18.71;63.96;100470.93;2216404;80;50752;-73
2023/02/23 13:42:57;;;;;;;;;;;;;;;18.76;63.89;100465.05;2216284;80;51623;-74
2023/02/23 13:46:04;;;;;;;;;;;;;;;18.79;63.86;100471.36;2217016;79;22156;-74
2023/02/23 13:49:27;;;;;;;;;;;;;;;18.71;61.35;100477.63;2216365;79;50592;-75
2023/02/23 13:52:34;;;;;;;;;;;;;;;18.38;57.20;100474.02;2215398;80;50819;-74
2023/02/23 13:55:37;;;;;;;;;;;;;;;18.13;55.07;100477.48;2198457;79;51611;-74
2023/02/23 13:58:40;;;;;;;;;;;;;;;17.95;55.61;100485.03;2225852;79;51033;-74
2023/02/23 14:01:46;;;;;;;;;;;;;;;18.18;55.10;100484.96;2228363;78;50757;-75
2023/02/23 14:04:47;;;;;;;;;;;;;;;18.35;55.36;100482.94;2253604;79;51505;-74
2023/02/23 14:07:51;;;;;;;;;;;;;;;18.39;55.79;100486.38;2228381;79;50525;-75
2023/02/23 14:10:54;;;;;;;;;;;;;;;18.46;55.65;100483.28;2228138;78;52244;-75
2023/02/23 14:14:00;;;;;;;;;;;;;;;18.53;56.25;100483.39;2253494;79;50465;-75
2023/02/23 14:17:12;;;;;;;;;;;;;;;18.59;56.98;100485.30;2253435;78;51514;-75
2023/02/23 14:20:14;;;;;;;;;;;;;;;18.63;57.87;100478.56;2253189;79;50421;-74
2023/02/23 14:23:17;;;;;;;;;;;;;;;18.73;58.34;100486.32;2228202;79;52356;-76
2023/02/23 14:26:29;;;;;;;;;;;;;;;18.75;58.71;100484.29;2243930;79;51555;-75
2023/02/23 14:29:33;;;;;;;;;;;;;;;18.81;58.93;100491.59;2254848;78;50031;-75
2023/02/23 14:32:39;;;;;;;;;;;;;;;18.91;58.96;100492.13;2254254;79;50447;-75
2023/02/23 14:35:43;;;;;;;;;;;;;;;18.97;58.97;100492.39;2227194;79;52296;-74
2023/02/23 14:38:44;;;;;;;;;;;;;;;18.95;59.28;100495.25;2252244;78;51496;-74
2023/02/23 14:41:49;;;;;;;;;;;;;;;18.96;59.99;100496.08;2224081;79;50594;-74
2023/02/23 14:44:52;;;;;;;;;;;;;;;18.87;60.49;100492.69;2254832;79;50460;-75
2023/02/23 14:47:55;;;;;;;;;;;;;;;18.86;60.47;100498.56;2213957;80;52417;-76
2023/02/23 14:51:16;;;;;;;;;;;;;;;18.80;60.68;100499.30;2214168;80;51563;-76
2023/02/23 14:54:23;;;;;;;;;;;;;;;18.74;61.38;100493.33;2216705;79;22117;-76
2023/02/23 14:57:25;;;;;;;;;;;;;;;18.68;61.83;100498.94;2216396;80;50472;-76
2023/02/23 15:00:27;;;;;;;;;;;;;;;18.67;62.17;100495.09;2215666;80;52387;-76
2023/02/23 15:03:29;;;;;;;;;;;;;;;18.76;62.12;100490.50;2216157;80;50378;-76
2023/02/23 15:06:31;;;;;;;;;;;;;;;18.82;61.99;100494.59;2215874;78;51551;-76
2023/02/23 15:09:36;;;;;;;;;;;;;;;18.90;61.81;100483.75;2216125;80;50476;-76
2023/02/23 15:12:38;;;;;;;;;;;;;;;19.02;61.73;100485.95;2230930;78;52362;-75
2023/02/23 15:15:44;;;;;;;;;;;;;;;18.96;62.22;100495.59;2248256;78;51506;-75
2023/02/23 15:18:45;;;;;;;;;;;;;;;18.88;62.29;100489.83;2254884;78;50759;-76
2023/02/23 15:21:51;;;;;;;;;;;;;;;18.82;63.00;100484.37;2254577;79;51511;-76
2023/02/23 15:24:53;;;;;;;;;;;;;;;18.76;63.20;100485.14;2228908;78;51192;-75
2023/02/23 15:27:55;;;;;;;;;;;;;;;18.69;63.83;100483.16;2229396;79;50807;-77
2023/02/23 15:30:58;;;;;;;;;;;;;;;18.65;63.91;100483.23;2254304;79;50440;-76
2023/02/23 15:34:00;;;;;;;;;;;;;;;18.65;63.99;100478.36;2254444;79;50237;-76
2023/02/23 15:37:06;;;;;;;;;;;;;;;18.65;64.05;100482.38;2229303;79;51173;-77
2023/02/23 15:40:17;;;;;;;;;;;;;;;18.66;64.08;100477.36;2254338;79;50771;-76
2023/02/23 15:43:19;;;;;;;;;;;;;;;18.75;63.83;100478.07;2237069;78;51498;-76
2023/02/23 15:46:24;;;;;;;;;;;;;;;18.79;63.71;100482.91;2255622;79;51520;-76
2023/02/23 15:49:28;;;;;;;;;;;;;;;18.84;63.67;100479.66;2234318;79;50802;-76
2023/02/23 15:52:31;;;;;;;;;;;;;;;18.82;63.67;100478.50;2256704;77;50527;-75
2023/02/23 15:55:34;;;;;;;;;;;;;;;18.77;64.13;100478.75;2254697;78;22169;-76
2023/02/23 15:58:39;;;;;;;;;;;;;;;18.74;64.10;100478.59;2229497;79;51608;-75
2023/02/23 16:01:41;;;;;;;;;;;;;;;18.68;64.36;100481.52;2202391;79;50127;-74
2023/02/23 16:04:47;;;;;;;;;;;;;;;18.74;64.04;100479.10;2218871;79;50816;-74
2023/02/23 16:07:46;;;;;;;;;;;;;;;18.75;63.83;100480.27;2217758;80;22825;-75
2023/02/23 16:10:48;;;;;;;;;;;;;;;18.69;63.87;100472.96;2219311;80;51376;-74
2023/02/23 16:13:51;;;;;;;;;;;;;;;18.70;63.67;100475.95;2206994;79;50192;-75
2023/02/23 16:16:52;;;;;;;;;;;;;;;18.69;63.78;100468.94;2257259;79;50784;-75
2023/02/23 16:19:54;;;;;;;;;;;;;;;18.72;63.65;100468.56;2226730;79;50428;-74
2023/02/23 16:22:56;;;;;;;;;;;;;;;18.81;63.44;100470.15;2219106;80;50130;-74
2023/02/23 16:26:00;;;;;;;;;;;;;;;18.85;63.32;100470.08;2193602;80;51704;-75
2023/02/23 16:29:02;;;;;;;;;;;;;;;18.89;63.31;100467.34;2218179;80;50768;-75
2023/02/23 16:32:05;;;;;;;;;;;;;;;18.96;63.25;100471.94;2194144;80;51693;-75
2023/02/23 16:35:17;;;;;;;;;;;;;;;18.97;63.22;100466.92;2216965;80;50413;-76
2023/02/23 16:38:25;;;;;;;;;;;;;;;18.93;63.26;100468.64;2197578;80;52519;-75
2023/02/23 16:41:28;;;;;;;;;;;;;;;18.90;63.41;100464.16;2217685;80;51539;-76
2023/02/23 16:44:30;;;;;;;;;;;;;;;18.86;63.62;100466.91;2191836;80;51567;-76
2023/02/23 16:47:35;;;;;;;;;;;;;;;18.81;63.75;100463.45;2235632;78;50712;-73
2023/02/23 16:50:39;;;;;;;;;;;;;;;18.78;63.80;100467.86;2178981;81;51665;-73
2023/02/23 16:53:39;;;;;;;;;;;;;;;18.76;63.84;100466.38;2181053;80;22991;-73
2023/02/23 16:56:41;;;;;;;;;;;;;;;18.71;63.99;100466.39;2155326;81;49992;-73
2023/02/23 16:59:43;;;;;;;;;;;;;;;18.72;64.01;100465.36;2180735;81;50443;-73
2023/02/23 17:02:44;;;;;;;;;;;;;;;18.78;63.79;100471.88;2179106;81;50371;-73
2023/02/23 17:05:46;;;;;;;;;;;;;;;18.81;63.71;100474.17;2157266;81;50622;-73